Time;durP1;ratioP1;P1;durP2;ratioP2;P2;SDS_P1;SDS_P2;PMS_P1;PMS_P2;Temp;Humidity;BMP_temperature;BMP_pressure;BME280_temperature;BME280_humidity;BME280_pressure;Samples;Min_cycle;Max_cycle;Signal;HPM_P1;HPM_P2
2024/01/24 00:00:45;;;;;;;2.78;0.95;;;;;;;;;;4944135;28;98892;-74
2024/01/24 00:03:12;;;;;;;2.58;0.90;;;;;;;;;;4946229;28;99949;-74
2024/01/24 00:05:39;;;;;;;2.65;0.90;;;;;;;;;;4944458;28;99499;-74
2024/01/24 00:08:05;;;;;;;3.40;1.00;;;;;;;;;;4954066;28;100282;-75
2024/01/24 00:10:32;;;;;;;3.42;0.93;;;;;;;;;;4951984;28;105650;-75
2024/01/24 00:12:58;;;;;;;2.13;0.82;;;;;;;;;;4943552;28;99005;-74
2024/01/24 00:15:25;;;;;;;5.22;0.90;;;;;;;;;;4943403;28;99837;-75
2024/01/24 00:17:52;;;;;;;4.55;0.77;;;;;;;;;;4960644;28;99131;-75
2024/01/24 00:20:18;;;;;;;2.10;0.70;;;;;;;;;;4942061;28;98874;-77
2024/01/24 00:22:45;;;;;;;2.00;0.70;;;;;;;;;;4926509;28;101950;-76
2024/01/24 00:25:11;;;;;;;3.28;0.82;;;;;;;;;;4945601;28;100516;-76
2024/01/24 00:27:38;;;;;;;4.15;1.00;;;;;;;;;;4944406;28;99266;-75
2024/01/24 00:30:05;;;;;;;5.45;0.93;;;;;;;;;;4943634;28;99756;-75
2024/01/24 00:32:32;;;;;;;4.75;1.00;;;;;;;;;;4943761;28;98873;-74
2024/01/24 00:34:58;;;;;;;4.10;0.82;;;;;;;;;;4943769;28;100439;-75
2024/01/24 00:37:25;;;;;;;7.30;0.70;;;;;;;;;;4943267;28;99367;-75
2024/01/24 00:39:51;;;;;;;1.55;0.80;;;;;;;;;;4961635;28;99052;-75
2024/01/24 00:42:18;;;;;;;3.92;0.80;;;;;;;;;;4963283;28;98618;-75
2024/01/24 00:44:47;;;;;;;1.08;0.60;;;;;;;;;;4963218;28;99745;-75
2024/01/24 00:47:14;;;;;;;1.60;0.63;;;;;;;;;;4966864;28;98221;-75
2024/01/24 00:49:40;;;;;;;3.20;0.80;;;;;;;;;;4950186;28;100154;-74
2024/01/24 00:52:07;;;;;;;2.65;0.70;;;;;;;;;;4944153;28;99036;-75
2024/01/24 00:54:33;;;;;;;2.88;0.88;;;;;;;;;;4943487;28;99713;-75
2024/01/24 00:57:00;;;;;;;1.13;0.65;;;;;;;;;;4943833;28;100190;-74
2024/01/24 00:59:26;;;;;;;2.50;0.80;;;;;;;;;;4926634;28;99126;-73
2024/01/24 01:01:53;;;;;;;2.28;0.80;;;;;;;;;;4946056;28;98817;-73
2024/01/24 01:04:21;;;;;;;1.80;0.75;;;;;;;;;;4947582;28;100468;-74
2024/01/24 01:06:48;;;;;;;2.72;0.80;;;;;;;;;;4946521;28;99044;-74
2024/01/24 01:09:14;;;;;;;2.63;0.80;;;;;;;;;;4932476;28;102037;-73
2024/01/24 01:11:41;;;;;;;3.30;0.80;;;;;;;;;;4947815;28;98203;-74
2024/01/24 01:14:08;;;;;;;1.73;0.82;;;;;;;;;;4930066;28;101246;-74
2024/01/24 01:16:34;;;;;;;1.88;0.70;;;;;;;;;;4946638;28;99252;-74
2024/01/24 01:19:01;;;;;;;2.65;0.70;;;;;;;;;;4947001;28;99453;-74
2024/01/24 01:21:27;;;;;;;1.27;0.70;;;;;;;;;;4947424;28;99605;-74
2024/01/24 01:23:54;;;;;;;2.22;0.75;;;;;;;;;;4947090;28;99098;-73
2024/01/24 01:26:20;;;;;;;1.85;0.70;;;;;;;;;;4946961;28;98991;-72
2024/01/24 01:28:47;;;;;;;4.57;0.90;;;;;;;;;;4949838;28;99099;-74
2024/01/24 01:31:14;;;;;;;7.30;0.90;;;;;;;;;;4947415;28;99000;-75
2024/01/24 01:33:40;;;;;;;1.42;0.65;;;;;;;;;;4928933;28;100074;-75
2024/01/24 01:36:07;;;;;;;3.45;0.60;;;;;;;;;;4945971;28;98247;-75
2024/01/24 01:38:48;;;;;;;2.45;0.80;;;;;;;;;;4956529;28;99377;-75
2024/01/24 01:41:15;;;;;;;1.00;0.60;;;;;;;;;;4948503;28;101468;-75
2024/01/24 01:43:43;;;;;;;1.13;0.50;;;;;;;;;;4964881;28;100315;-75
2024/01/24 01:46:11;;;;;;;1.05;0.60;;;;;;;;;;4950648;28;98522;-73
2024/01/24 01:48:38;;;;;;;3.45;0.90;;;;;;;;;;4946427;28;98838;-75
2024/01/24 01:51:05;;;;;;;1.42;0.52;;;;;;;;;;4949332;28;99223;-75
2024/01/24 01:53:38;;;;;;;2.05;0.70;;;;;;;;;;4946486;28;98751;-75
2024/01/24 01:56:09;;;;;;;1.27;0.70;;;;;;;;;;4946510;28;99209;-75
2024/01/24 01:58:36;;;;;;;1.90;0.65;;;;;;;;;;4945168;28;98940;-75
2024/01/24 02:01:03;;;;;;;;;;;;;;;;;;4948128;28;99340;-74
2024/01/24 02:03:30;;;;;;;0.45;0.45;;;;;;;;;;4945075;28;100360;-75
2024/01/24 02:05:57;;;;;;;1.30;0.50;;;;;;;;;;4946673;28;98990;-75
2024/01/24 02:08:24;;;;;;;3.13;0.73;;;;;;;;;;4945707;28;99576;-75
2024/01/24 02:10:50;;;;;;;1.83;0.68;;;;;;;;;;4944989;28;100561;-74
2024/01/24 02:13:16;;;;;;;1.92;0.57;;;;;;;;;;4948552;28;98596;-74
2024/01/24 02:15:43;;;;;;;1.63;0.50;;;;;;;;;;4946292;28;99123;-75
2024/01/24 02:18:09;;;;;;;0.88;0.63;;;;;;;;;;4945607;28;98953;-75
2024/01/24 02:20:36;;;;;;;0.70;0.57;;;;;;;;;;4945682;28;98805;-74
2024/01/24 02:23:03;;;;;;;0.63;0.50;;;;;;;;;;4944041;28;100183;-75
2024/01/24 02:25:29;;;;;;;1.52;0.60;;;;;;;;;;4947191;28;98409;-74
2024/01/24 02:27:56;;;;;;;1.58;0.57;;;;;;;;;;4945086;28;99307;-76
2024/01/24 02:30:22;;;;;;;1.08;0.50;;;;;;;;;;4945947;28;99106;-76
2024/01/24 02:32:49;;;;;;;1.40;0.40;;;;;;;;;;4944574;28;99440;-76
2024/01/24 02:35:16;;;;;;;0.95;0.43;;;;;;;;;;4948418;28;99723;-75
2024/01/24 02:37:42;;;;;;;2.60;0.60;;;;;;;;;;4946361;28;98984;-75
2024/01/24 02:40:09;;;;;;;3.03;0.77;;;;;;;;;;4965344;28;98979;-75
2024/01/24 02:42:35;;;;;;;0.73;0.47;;;;;;;;;;4946749;28;99253;-75
2024/01/24 02:45:02;;;;;;;2.63;0.68;;;;;;;;;;4946182;28;106509;-75
2024/01/24 02:47:28;;;;;;;1.92;0.70;;;;;;;;;;4945534;28;99708;-76
2024/01/24 02:49:57;;;;;;;1.10;0.55;;;;;;;;;;4946272;28;99286;-75
2024/01/24 02:52:23;;;;;;;2.20;0.52;;;;;;;;;;4943449;28;99278;-75
2024/01/24 02:54:50;;;;;;;2.63;0.52;;;;;;;;;;4945217;28;99080;-75
2024/01/24 02:57:16;;;;;;;3.10;0.77;;;;;;;;;;4947722;28;101836;-74
2024/01/24 02:59:43;;;;;;;1.73;0.60;;;;;;;;;;4945893;28;99371;-75
2024/01/24 03:02:09;;;;;;;2.55;0.70;;;;;;;;;;4943992;28;99212;-75
2024/01/24 03:04:37;;;;;;;1.80;0.50;;;;;;;;;;4944938;28;98983;-75
2024/01/24 03:07:03;;;;;;;2.17;0.55;;;;;;;;;;4944985;28;99249;-75
2024/01/24 03:09:30;;;;;;;2.17;0.60;;;;;;;;;;4944469;28;99164;-75
2024/01/24 03:11:56;;;;;;;3.40;0.60;;;;;;;;;;4945499;28;98588;-76
2024/01/24 03:14:24;;;;;;;2.67;0.70;;;;;;;;;;4946395;28;99897;-74
2024/01/24 03:16:51;;;;;;;2.47;0.70;;;;;;;;;;4943793;28;99238;-76
2024/01/24 03:19:17;;;;;;;6.53;0.80;;;;;;;;;;4949192;28;98944;-75
2024/01/24 03:21:45;;;;;;;1.75;0.70;;;;;;;;;;4944046;28;99882;-75
2024/01/24 03:24:11;;;;;;;3.10;0.75;;;;;;;;;;4944244;28;98611;-75
2024/01/24 03:26:38;;;;;;;2.40;0.73;;;;;;;;;;4944782;28;99305;-75
2024/01/24 03:29:04;;;;;;;2.22;0.70;;;;;;;;;;4944480;28;99634;-75
2024/01/24 03:31:31;;;;;;;2.45;0.68;;;;;;;;;;4944818;28;98640;-75
2024/01/24 03:33:57;;;;;;;4.57;0.80;;;;;;;;;;4943413;28;99007;-76
2024/01/24 03:36:24;;;;;;;6.07;0.90;;;;;;;;;;4943860;28;99522;-74
2024/01/24 03:38:50;;;;;;;2.67;0.77;;;;;;;;;;4947804;28;98388;-75
2024/01/24 03:41:17;;;;;;;2.50;0.80;;;;;;;;;;4944400;28;99726;-75
2024/01/24 03:43:43;;;;;;;4.03;0.70;;;;;;;;;;4944190;28;98880;-75
2024/01/24 03:46:10;;;;;;;3.67;0.70;;;;;;;;;;4944241;28;99263;-74
2024/01/24 03:48:36;;;;;;;5.57;0.77;;;;;;;;;;4942410;28;99159;-74
2024/01/24 03:51:03;;;;;;;4.60;0.65;;;;;;;;;;4942829;28;98650;-74
2024/01/24 03:53:31;;;;;;;3.90;1.00;;;;;;;;;;4944395;28;99401;-74
2024/01/24 03:55:58;;;;;;;5.13;0.90;;;;;;;;;;4944413;28;99126;-75
2024/01/24 03:58:24;;;;;;;3.33;0.93;;;;;;;;;;4943472;28;98961;-74
2024/01/24 04:00:52;;;;;;;6.03;0.90;;;;;;;;;;4947426;28;98858;-74
2024/01/24 04:03:19;;;;;;;4.68;1.17;;;;;;;;;;4942955;28;97999;-75
2024/01/24 04:05:46;;;;;;;5.72;1.20;;;;;;;;;;4949200;28;98653;-74
2024/01/24 04:08:13;;;;;;;5.53;1.20;;;;;;;;;;4944803;28;99833;-74
2024/01/24 04:10:39;;;;;;;5.88;1.10;;;;;;;;;;4943408;28;99500;-74
2024/01/24 04:13:06;;;;;;;4.97;1.10;;;;;;;;;;4944424;28;100096;-74
2024/01/24 04:15:32;;;;;;;6.43;1.00;;;;;;;;;;4943157;28;100422;-74
2024/01/24 04:17:59;;;;;;;3.95;1.02;;;;;;;;;;4944240;28;99136;-74
2024/01/24 04:20:26;;;;;;;6.43;1.17;;;;;;;;;;4944825;28;98898;-75
2024/01/24 04:22:53;;;;;;;;;;;;;;;;;;4947243;28;103825;-75
2024/01/24 04:25:19;;;;;;;7.13;1.50;;;;;;;;;;4945701;28;118088;-76
2024/01/24 04:27:46;;;;;;;6.47;1.20;;;;;;;;;;4944725;28;98947;-77
2024/01/24 04:30:12;;;;;;;8.60;1.52;;;;;;;;;;4945126;28;98479;-76
2024/01/24 04:32:39;;;;;;;8.23;1.30;;;;;;;;;;4943289;28;98765;-76
2024/01/24 04:35:06;;;;;;;6.72;1.45;;;;;;;;;;4942872;28;99792;-76
2024/01/24 04:37:33;;;;;;;6.60;1.40;;;;;;;;;;4946573;28;98937;-75
2024/01/24 04:40:00;;;;;;;10.52;1.75;;;;;;;;;;4965366;28;98910;-75
2024/01/24 04:42:26;;;;;;;9.05;1.83;;;;;;;;;;4945930;28;99132;-75
2024/01/24 04:44:53;;;;;;;10.57;1.88;;;;;;;;;;4948717;28;98685;-74
2024/01/24 04:47:19;;;;;;;9.55;1.63;;;;;;;;;;4945787;28;99251;-76
2024/01/24 04:49:46;;;;;;;8.13;1.33;;;;;;;;;;4947783;28;98989;-76
2024/01/24 04:52:15;;;;;;;10.10;2.05;;;;;;;;;;4947840;28;98878;-75
2024/01/24 04:54:41;;;;;;;9.27;1.88;;;;;;;;;;4945943;28;99381;-75
2024/01/24 04:57:08;;;;;;;9.38;1.50;;;;;;;;;;4947184;28;98936;-75
2024/01/24 04:59:35;;;;;;;7.90;1.50;;;;;;;;;;4946959;28;100491;-74
2024/01/24 05:02:17;;;;;;;7.63;1.55;;;;;;;;;;4946734;28;99084;-75
2024/01/24 05:04:44;;;;;;;10.73;1.70;;;;;;;;;;4946926;28;98739;-76
2024/01/24 05:07:10;;;;;;;10.15;1.38;;;;;;;;;;4952137;28;99224;-76
2024/01/24 05:09:38;;;;;;;8.90;1.50;;;;;;;;;;4966903;28;99529;-76
2024/01/24 05:12:05;;;;;;;11.15;1.85;;;;;;;;;;4967288;28;99304;-75
2024/01/24 05:14:32;;;;;;;10.40;1.65;;;;;;;;;;4966155;28;99082;-75
2024/01/24 05:16:59;;;;;;;;;;;;;;;;;;4934640;28;98108;-76
2024/01/24 05:19:25;;;;;;;11.05;1.80;;;;;;;;;;4948404;28;126045;-75
2024/01/24 05:21:52;;;;;;;10.43;1.70;;;;;;;;;;4946793;28;99755;-75
2024/01/24 05:24:18;;;;;;;9.52;1.90;;;;;;;;;;4946516;28;99794;-75
2024/01/24 05:26:46;;;;;;;12.18;1.90;;;;;;;;;;4949110;28;100175;-75
2024/01/24 05:29:13;;;;;;;9.38;1.70;;;;;;;;;;4946923;28;99053;-74
2024/01/24 05:31:39;;;;;;;12.48;2.28;;;;;;;;;;4945299;28;100234;-74
2024/01/24 05:34:06;;;;;;;9.18;2.25;;;;;;;;;;4946209;28;100800;-75
2024/01/24 05:36:32;;;;;;;12.52;2.80;;;;;;;;;;4952967;28;99259;-75
2024/01/24 05:38:59;;;;;;;10.27;2.05;;;;;;;;;;4957349;28;100175;-75
2024/01/24 05:41:25;;;;;;;10.00;2.20;;;;;;;;;;4948415;28;101724;-75
2024/01/24 05:43:52;;;;;;;13.93;2.55;;;;;;;;;;4962257;28;99357;-75
2024/01/24 05:46:18;;;;;;;16.27;2.20;;;;;;;;;;4947498;28;99756;-75
2024/01/24 05:48:45;;;;;;;13.40;2.30;;;;;;;;;;4947383;28;99949;-75
2024/01/24 05:51:12;;;;;;;14.88;2.20;;;;;;;;;;4947113;28;99663;-75
2024/01/24 05:53:42;;;;;;;10.85;1.98;;;;;;;;;;4947207;28;99095;-75
2024/01/24 05:56:09;;;;;;;14.63;2.47;;;;;;;;;;4947569;28;98773;-75
2024/01/24 05:58:37;;;;;;;12.90;2.30;;;;;;;;;;4944816;28;99912;-75
2024/01/24 06:01:05;;;;;;;9.80;1.98;;;;;;;;;;4946640;28;99378;-76
2024/01/24 06:03:33;;;;;;;8.80;2.03;;;;;;;;;;4946899;28;98522;-76
2024/01/24 06:06:01;;;;;;;12.45;2.10;;;;;;;;;;4949218;28;99870;-75
2024/01/24 06:08:29;;;;;;;12.18;2.15;;;;;;;;;;4948171;28;99233;-75
2024/01/24 06:10:55;;;;;;;13.20;1.90;;;;;;;;;;4934007;28;99071;-75
2024/01/24 06:13:22;;;;;;;14.10;2.55;;;;;;;;;;4945500;28;99926;-74
2024/01/24 06:15:49;;;;;;;11.98;2.20;;;;;;;;;;4946762;28;99124;-74
2024/01/24 06:18:16;;;;;;;11.95;2.40;;;;;;;;;;4946137;28;99066;-74
2024/01/24 06:20:43;;;;;;;16.80;2.13;;;;;;;;;;4944064;28;100414;-74
2024/01/24 06:23:09;;;;;;;13.27;2.33;;;;;;;;;;4945048;28;99670;-74
2024/01/24 06:25:36;;;;;;;10.93;2.13;;;;;;;;;;4946348;28;98957;-73
2024/01/24 06:28:02;;;;;;;14.13;2.70;;;;;;;;;;4945648;28;99118;-74
2024/01/24 06:30:29;;;;;;;13.18;2.30;;;;;;;;;;4946347;28;99045;-74
2024/01/24 06:32:57;;;;;;;16.58;2.60;;;;;;;;;;4931263;28;99475;-74
2024/01/24 06:35:24;;;;;;;17.08;2.92;;;;;;;;;;4946426;28;98763;-74
2024/01/24 06:37:51;;;;;;;12.07;2.92;;;;;;;;;;4944360;28;99930;-74
2024/01/24 06:40:19;;;;;;;17.10;2.85;;;;;;;;;;4944647;28;99618;-74
2024/01/24 06:42:46;;;;;;;13.48;2.58;;;;;;;;;;4944905;28;98689;-74
2024/01/24 06:45:13;;;;;;;12.63;2.63;;;;;;;;;;4946056;28;99358;-75
2024/01/24 06:47:39;;;;;;;14.75;2.80;;;;;;;;;;4945623;28;99905;-75
2024/01/24 06:50:12;;;;;;;14.30;2.90;;;;;;;;;;4945391;28;98632;-75
2024/01/24 06:52:41;;;;;;;13.48;2.45;;;;;;;;;;4945305;28;98879;-75
2024/01/24 06:55:13;;;;;;;11.98;2.33;;;;;;;;;;4947955;28;98336;-75
2024/01/24 06:57:39;;;;;;;11.93;2.35;;;;;;;;;;4945412;28;98605;-75
2024/01/24 07:00:08;;;;;;;14.52;2.88;;;;;;;;;;4944408;28;99654;-75
2024/01/24 07:02:34;;;;;;;15.20;2.80;;;;;;;;;;4943425;28;99469;-74
2024/01/24 07:05:03;;;;;;;14.38;2.78;;;;;;;;;;4927804;28;100716;-75
2024/01/24 07:07:29;;;;;;;12.48;2.47;;;;;;;;;;4949714;28;99317;-74
2024/01/24 07:09:56;;;;;;;11.93;2.58;;;;;;;;;;4929217;28;98996;-74
2024/01/24 07:12:23;;;;;;;13.40;2.30;;;;;;;;;;4945528;28;99142;-75
2024/01/24 07:14:50;;;;;;;13.70;2.83;;;;;;;;;;4944873;28;99873;-75
2024/01/24 07:17:19;;;;;;;16.40;2.80;;;;;;;;;;4948723;28;98586;-75
2024/01/24 07:19:45;;;;;;;14.05;2.60;;;;;;;;;;4945031;28;99435;-75
2024/01/24 07:22:12;;;;;;;14.82;3.00;;;;;;;;;;4944229;28;104764;-74
2024/01/24 07:24:42;;;;;;;12.43;2.58;;;;;;;;;;4945018;28;99041;-74
2024/01/24 07:27:08;;;;;;;18.60;2.70;;;;;;;;;;4943856;28;99736;-74
2024/01/24 07:29:35;;;;;;;16.45;2.85;;;;;;;;;;4944927;28;98610;-74
2024/01/24 07:32:03;;;;;;;15.30;3.08;;;;;;;;;;4947110;28;98873;-75
2024/01/24 07:34:30;;;;;;;15.75;2.55;;;;;;;;;;4963330;28;99198;-74
2024/01/24 07:36:56;;;;;;;12.13;2.50;;;;;;;;;;4958448;28;98559;-74
2024/01/24 07:39:23;;;;;;;17.23;2.75;;;;;;;;;;4956738;28;98947;-74
2024/01/24 07:41:49;;;;;;;13.85;2.72;;;;;;;;;;4943024;28;98794;-75
2024/01/24 07:44:16;;;;;;;20.80;3.08;;;;;;;;;;4945607;28;99293;-74
2024/01/24 07:46:43;;;;;;;21.63;3.58;;;;;;;;;;4944183;28;99111;-74
2024/01/24 07:49:10;;;;;;;19.92;3.10;;;;;;;;;;4944954;28;98807;-74
2024/01/24 07:51:37;;;;;;;19.55;2.97;;;;;;;;;;4942373;28;100520;-75
2024/01/24 07:54:04;;;;;;;14.07;3.00;;;;;;;;;;4946896;28;99152;-75
2024/01/24 07:56:31;;;;;;;15.80;3.20;;;;;;;;;;4946641;28;98965;-74
2024/01/24 07:58:58;;;;;;;19.85;3.58;;;;;;;;;;4946874;28;99104;-74
2024/01/24 08:01:26;;;;;;;23.90;3.65;;;;;;;;;;4944807;28;99015;-74
2024/01/24 08:03:53;;;;;;;19.98;2.80;;;;;;;;;;4943333;28;99169;-74
2024/01/24 08:06:21;;;;;;;14.32;2.40;;;;;;;;;;4941946;28;99760;-72
2024/01/24 08:08:48;;;;;;;17.77;3.55;;;;;;;;;;4953827;28;98146;-73
2024/01/24 08:11:16;;;;;;;14.20;2.92;;;;;;;;;;4941854;28;98753;-73
2024/01/24 08:13:44;;;;;;;13.02;2.45;;;;;;;;;;4942237;28;99373;-72
2024/01/24 08:16:11;;;;;;;13.93;3.15;;;;;;;;;;4943083;28;99700;-73
2024/01/24 08:18:37;;;;;;;11.95;3.00;;;;;;;;;;4944094;28;100179;-72
2024/01/24 08:21:05;;;;;;;11.32;2.47;;;;;;;;;;4927349;28;99268;-72
2024/01/24 08:23:34;;;;;;;10.93;2.53;;;;;;;;;;4939071;28;99883;-72
2024/01/24 08:26:14;;;;;;;10.38;2.08;;;;;;;;;;4941591;28;99216;-73
2024/01/24 08:28:42;;;;;;;10.65;2.53;;;;;;;;;;4943329;28;98945;-73
2024/01/24 08:31:09;;;;;;;12.63;2.85;;;;;;;;;;4943163;28;99085;-73
2024/01/24 08:33:36;;;;;;;10.45;2.58;;;;;;;;;;4943630;28;98291;-73
2024/01/24 08:36:03;;;;;;;11.90;2.42;;;;;;;;;;4943348;28;99061;-73
2024/01/24 08:38:30;;;;;;;12.68;3.05;;;;;;;;;;4948842;28;99444;-72
2024/01/24 08:40:56;;;;;;;13.13;2.53;;;;;;;;;;4962016;28;99948;-73
2024/01/24 08:43:23;;;;;;;12.05;2.47;;;;;;;;;;4966656;28;98988;-73
2024/01/24 08:45:50;;;;;;;11.52;2.60;;;;;;;;;;4960629;28;100651;-72
2024/01/24 08:48:17;;;;;;;9.55;2.53;;;;;;;;;;4943842;28;98663;-72
2024/01/24 08:50:45;;;;;;;10.40;2.70;;;;;;;;;;4942674;28;99356;-74
2024/01/24 08:53:11;;;;;;;11.55;2.58;;;;;;;;;;4943781;28;99205;-73
2024/01/24 08:55:38;;;;;;;13.32;2.78;;;;;;;;;;4959608;28;99339;-73
2024/01/24 08:58:04;;;;;;;10.27;2.47;;;;;;;;;;4963390;28;98693;-73
2024/01/24 09:00:31;;;;;;;12.00;2.78;;;;;;;;;;4952136;28;99076;-70
2024/01/24 09:02:58;;;;;;;;;;;;;;;;;;4964120;28;98912;-71
2024/01/24 09:05:25;;;;;;;10.38;2.55;;;;;;;;;;4967077;28;121024;-71
2024/01/24 09:07:52;;;;;;;13.50;2.63;;;;;;;;;;4963997;28;98627;-71
2024/01/24 09:10:20;;;;;;;10.38;2.42;;;;;;;;;;4964287;28;100077;-72
2024/01/24 09:12:46;;;;;;;12.80;2.97;;;;;;;;;;4962354;28;99161;-71
2024/01/24 09:15:13;;;;;;;11.75;2.65;;;;;;;;;;4956421;28;98937;-71
2024/01/24 09:17:40;;;;;;;12.02;2.63;;;;;;;;;;4943733;28;99956;-72
2024/01/24 09:20:07;;;;;;;12.15;2.47;;;;;;;;;;4943861;28;99858;-71
2024/01/24 09:22:34;;;;;;;;;;;;;;;;;;4944355;28;98939;-71
2024/01/24 09:25:00;;;;;;;9.85;2.40;;;;;;;;;;4948774;28;110170;-72
2024/01/24 09:27:33;;;;;;;10.38;2.38;;;;;;;;;;4949848;28;99127;-72
2024/01/24 09:29:59;;;;;;;11.60;2.80;;;;;;;;;;4945949;28;100271;-72
2024/01/24 09:32:26;;;;;;;10.38;2.47;;;;;;;;;;4944820;28;99219;-72
2024/01/24 09:34:53;;;;;;;9.88;2.42;;;;;;;;;;4945145;28;99049;-71
2024/01/24 09:37:20;;;;;;;17.90;2.55;;;;;;;;;;4947088;28;99905;-72
2024/01/24 09:39:48;;;;;;;9.02;2.40;;;;;;;;;;4963904;28;99716;-71
2024/01/24 09:42:23;;;;;;;10.93;2.70;;;;;;;;;;4964695;28;98957;-71
2024/01/24 09:44:51;;;;;;;10.18;2.55;;;;;;;;;;4943209;28;99216;-72
2024/01/24 09:47:17;;;;;;;;;;;;;;;;;;4949652;28;99299;-72
2024/01/24 09:49:44;;;;;;;10.80;2.47;;;;;;;;;;4946556;28;101657;-72
2024/01/24 09:52:12;;;;;;;12.02;2.50;;;;;;;;;;4945422;28;100180;-71
2024/01/24 09:54:39;;;;;;;10.38;2.22;;;;;;;;;;4945264;28;99572;-72
2024/01/24 09:57:06;;;;;;;11.13;2.58;;;;;;;;;;4945263;28;99469;-72
2024/01/24 09:59:33;;;;;;;10.85;2.40;;;;;;;;;;4945431;28;99919;-72
2024/01/24 10:01:59;;;;;;;11.65;2.50;;;;;;;;;;4946478;28;98939;-72
2024/01/24 10:04:26;;;;;;;12.57;2.45;;;;;;;;;;4946075;28;98923;-72
2024/01/24 10:06:53;;;;;;;10.30;2.40;;;;;;;;;;4945672;28;104924;-72
2024/01/24 10:09:20;;;;;;;10.70;2.45;;;;;;;;;;4968719;28;98942;-72
2024/01/24 10:11:47;;;;;;;11.43;2.40;;;;;;;;;;4954984;28;98480;-72
2024/01/24 10:14:14;;;;;;;10.07;2.45;;;;;;;;;;4946320;28;98830;-73
2024/01/24 10:16:41;;;;;;;8.82;1.77;;;;;;;;;;4943721;28;100038;-72
2024/01/24 10:19:08;;;;;;;9.60;2.40;;;;;;;;;;4944698;28;99878;-72
2024/01/24 10:21:35;;;;;;;9.50;2.33;;;;;;;;;;4944896;28;99306;-72
2024/01/24 10:24:02;;;;;;;12.43;2.60;;;;;;;;;;4944927;28;99426;-72
2024/01/24 10:26:29;;;;;;;10.52;2.58;;;;;;;;;;4944714;28;99303;-72
2024/01/24 10:28:56;;;;;;;9.57;2.47;;;;;;;;;;4944898;28;98960;-72
2024/01/24 10:31:24;;;;;;;9.82;2.08;;;;;;;;;;4949063;28;99858;-72
2024/01/24 10:33:57;;;;;;;10.90;2.28;;;;;;;;;;4944171;28;98927;-72
2024/01/24 10:36:27;;;;;;;9.10;2.22;;;;;;;;;;4961918;28;98801;-72
2024/01/24 10:39:00;;;;;;;9.90;2.53;;;;;;;;;;4952773;28;103527;-72
2024/01/24 10:41:29;;;;;;;11.30;2.70;;;;;;;;;;4944128;28;105474;-72
2024/01/24 10:43:57;;;;;;;10.65;2.50;;;;;;;;;;4943881;28;100020;-72
2024/01/24 10:46:24;;;;;;;10.85;2.60;;;;;;;;;;4943534;28;99025;-71
2024/01/24 10:48:51;;;;;;;8.48;2.25;;;;;;;;;;4943715;28;98858;-72
2024/01/24 10:51:18;;;;;;;9.98;2.53;;;;;;;;;;4944992;28;99007;-72
2024/01/24 10:53:45;;;;;;;11.52;2.35;;;;;;;;;;4947581;28;102387;-72
2024/01/24 10:56:13;;;;;;;10.88;2.55;;;;;;;;;;4944213;28;99036;-71
2024/01/24 10:58:41;;;;;;;12.07;2.60;;;;;;;;;;4942358;28;100797;-72
2024/01/24 11:01:08;;;;;;;11.45;2.85;;;;;;;;;;4945807;28;98060;-72
2024/01/24 11:03:34;;;;;;;10.55;2.20;;;;;;;;;;4943111;28;100491;-72
2024/01/24 11:06:03;;;;;;;11.68;2.60;;;;;;;;;;4943118;28;99161;-72
2024/01/24 11:08:32;;;;;;;10.02;2.40;;;;;;;;;;4955757;28;99655;-72
2024/01/24 11:11:13;;;;;;;10.57;2.22;;;;;;;;;;4963497;28;100666;-72
2024/01/24 11:13:40;;;;;;;10.48;2.45;;;;;;;;;;4956762;28;99392;-71
2024/01/24 11:16:26;;;;;;;12.95;2.45;;;;;;;;;;4927480;28;98864;-72
2024/01/24 11:18:53;;;;;;;12.20;2.63;;;;;;;;;;4923548;28;104040;-72
2024/01/24 11:21:21;;;;;;;11.00;2.60;;;;;;;;;;4932111;28;98725;-72
2024/01/24 11:23:50;;;;;;;10.35;2.33;;;;;;;;;;4944909;28;99845;-73
2024/01/24 11:26:17;;;;;;;9.32;2.10;;;;;;;;;;4943396;28;99532;-73
2024/01/24 11:28:44;;;;;;;9.93;2.28;;;;;;;;;;4944521;28;98666;-72
2024/01/24 11:31:12;;;;;;;9.43;2.17;;;;;;;;;;4945627;28;98850;-73
2024/01/24 11:34:05;;;;;;;10.48;2.30;;;;;;;;;;4944376;28;99714;-71
2024/01/24 11:36:39;;;;;;;10.70;2.40;;;;;;;;;;4944898;28;105716;-70
2024/01/24 11:39:25;;;;;;;11.77;2.70;;;;;;;;;;4956466;28;100942;-73
2024/01/24 11:41:52;;;;;;;10.98;2.25;;;;;;;;;;4923083;28;98665;-73
2024/01/24 11:44:19;;;;;;;11.57;2.83;;;;;;;;;;4925513;28;99081;-73
2024/01/24 11:46:46;;;;;;;;;;;;;;;;;;4922423;28;99586;-73
2024/01/24 11:49:12;;;;;;;12.02;2.33;;;;;;;;;;4928957;28;98859;-72
2024/01/24 11:51:39;;;;;;;10.70;2.28;;;;;;;;;;4964372;28;100359;-72
2024/01/24 11:54:06;;;;;;;13.48;2.50;;;;;;;;;;4963229;28;100190;-73
2024/01/24 11:56:35;;;;;;;13.25;2.90;;;;;;;;;;4963478;28;98767;-73
2024/01/24 11:59:02;;;;;;;12.50;2.40;;;;;;;;;;4965359;28;99963;-70
2024/01/24 12:01:29;;;;;;;18.70;2.78;;;;;;;;;;4963840;28;98592;-70
2024/01/24 12:03:55;;;;;;;16.88;2.72;;;;;;;;;;4956526;28;99169;-71
2024/01/24 12:06:22;;;;;;;13.15;2.88;;;;;;;;;;4942935;28;99458;-72
2024/01/24 12:08:49;;;;;;;15.40;2.60;;;;;;;;;;4959233;28;98646;-72
2024/01/24 12:11:17;;;;;;;12.50;2.58;;;;;;;;;;4944532;28;98782;-72
2024/01/24 12:13:44;;;;;;;13.80;2.40;;;;;;;;;;4944391;28;99282;-71
2024/01/24 12:16:17;;;;;;;13.40;2.58;;;;;;;;;;4944628;28;97837;-71
2024/01/24 12:18:44;;;;;;;9.13;2.45;;;;;;;;;;4947887;28;99153;-71
2024/01/24 12:21:11;;;;;;;11.38;2.47;;;;;;;;;;4950392;28;99100;-72
2024/01/24 12:23:38;;;;;;;11.57;2.30;;;;;;;;;;4948099;28;99862;-71
2024/01/24 12:26:05;;;;;;;9.63;2.10;;;;;;;;;;4944307;28;99177;-72
2024/01/24 12:28:32;;;;;;;12.95;2.50;;;;;;;;;;4945649;28;98783;-71
2024/01/24 12:31:02;;;;;;;12.02;2.38;;;;;;;;;;4943001;28;99966;-71
2024/01/24 12:33:31;;;;;;;10.68;2.50;;;;;;;;;;4945153;28;100109;-71
2024/01/24 12:36:04;;;;;;;11.30;2.70;;;;;;;;;;4943617;28;98721;-71
2024/01/24 12:38:33;;;;;;;10.82;2.33;;;;;;;;;;4948836;28;99063;-71
2024/01/24 12:41:00;;;;;;;11.20;2.65;;;;;;;;;;4963064;28;99954;-71
2024/01/24 12:43:26;;;;;;;10.82;2.30;;;;;;;;;;4967888;28;99723;-71
2024/01/24 12:45:53;;;;;;;13.68;2.80;;;;;;;;;;4958640;28;100116;-71
2024/01/24 12:48:20;;;;;;;10.23;2.38;;;;;;;;;;4962140;28;99618;-71
2024/01/24 12:50:50;;;;;;;12.18;2.70;;;;;;;;;;4961386;28;100666;-71
2024/01/24 12:53:17;;;;;;;10.63;2.50;;;;;;;;;;4944015;28;99817;-71
2024/01/24 12:55:44;;;;;;;9.30;2.20;;;;;;;;;;4962153;28;98520;-71
2024/01/24 12:58:10;;;;;;;9.25;2.03;;;;;;;;;;4945482;28;98984;-70
2024/01/24 13:00:37;;;;;;;9.07;2.17;;;;;;;;;;4945094;28;100255;-71
2024/01/24 13:03:05;;;;;;;10.55;2.60;;;;;;;;;;4946615;28;98741;-70
2024/01/24 13:05:32;;;;;;;12.73;2.60;;;;;;;;;;4949487;28;99977;-71
2024/01/24 13:08:11;;;;;;;10.45;2.47;;;;;;;;;;4946953;28;98824;-71
2024/01/24 13:10:43;;;;;;;10.68;2.20;;;;;;;;;;4946842;28;99281;-71
2024/01/24 13:13:11;;;;;;;12.05;2.58;;;;;;;;;;4945630;28;100578;-71
2024/01/24 13:15:37;;;;;;;9.98;2.03;;;;;;;;;;4929578;28;98971;-71
2024/01/24 13:18:07;;;;;;;8.25;2.42;;;;;;;;;;4945140;28;100563;-71
2024/01/24 13:20:34;;;;;;;8.48;1.90;;;;;;;;;;4945958;28;100137;-71
2024/01/24 13:23:01;;;;;;;11.30;2.17;;;;;;;;;;4947546;28;99153;-71
2024/01/24 13:25:28;;;;;;;9.65;2.28;;;;;;;;;;4947370;28;98993;-71
2024/01/24 13:27:55;;;;;;;10.65;2.40;;;;;;;;;;4948693;28;99207;-71
2024/01/24 13:30:22;;;;;;;12.18;2.13;;;;;;;;;;4945123;28;100524;-71
2024/01/24 13:32:49;;;;;;;8.77;1.98;;;;;;;;;;4946286;28;99051;-71
2024/01/24 13:35:16;;;;;;;9.90;2.33;;;;;;;;;;4955588;28;99225;-71
2024/01/24 13:37:43;;;;;;;10.07;2.03;;;;;;;;;;4941413;28;100030;-71
2024/01/24 13:40:11;;;;;;;10.85;2.25;;;;;;;;;;4948161;28;99528;-71
2024/01/24 13:42:39;;;;;;;10.05;2.10;;;;;;;;;;4942002;28;99380;-71
2024/01/24 13:45:06;;;;;;;9.25;2.08;;;;;;;;;;4931840;28;101736;-71
2024/01/24 13:47:32;;;;;;;9.25;2.10;;;;;;;;;;4942148;28;100408;-71
2024/01/24 13:49:59;;;;;;;9.23;2.00;;;;;;;;;;4948315;28;99567;-71
2024/01/24 13:52:25;;;;;;;9.85;2.20;;;;;;;;;;4942746;28;100048;-71
2024/01/24 13:54:52;;;;;;;9.98;2.22;;;;;;;;;;4946023;28;98884;-71
2024/01/24 13:57:19;;;;;;;9.02;2.17;;;;;;;;;;4943782;28;99125;-71
2024/01/24 13:59:46;;;;;;;8.70;2.28;;;;;;;;;;4945714;28;100166;-71
2024/01/24 14:02:13;;;;;;;9.52;2.22;;;;;;;;;;4945103;28;100581;-71
2024/01/24 14:04:40;;;;;;;8.80;2.00;;;;;;;;;;4945934;28;100141;-71
2024/01/24 14:07:07;;;;;;;8.32;1.85;;;;;;;;;;4926746;28;100330;-71
2024/01/24 14:09:33;;;;;;;;;;;;;;;;;;4951784;28;98826;-71
2024/01/24 14:12:02;;;;;;;11.75;2.30;;;;;;;;;;4948262;28;115695;-71
2024/01/24 14:14:29;;;;;;;11.93;2.38;;;;;;;;;;4946533;28;99045;-71
2024/01/24 14:16:58;;;;;;;9.20;2.05;;;;;;;;;;4947631;28;98677;-71
2024/01/24 14:19:25;;;;;;;10.52;2.20;;;;;;;;;;4946776;28;98487;-71
2024/01/24 14:21:52;;;;;;;11.25;2.25;;;;;;;;;;4946355;28;99042;-71
2024/01/24 14:24:19;;;;;;;;;;;;;;;;;;4951607;28;98452;-71
2024/01/24 14:26:47;;;;;;;9.60;1.95;;;;;;;;;;4946244;28;125747;-71
2024/01/24 14:29:15;;;;;;;8.77;2.00;;;;;;;;;;4948483;28;98868;-71
2024/01/24 14:31:41;;;;;;;8.68;1.85;;;;;;;;;;4947430;28;98825;-71
2024/01/24 14:34:08;;;;;;;7.45;1.90;;;;;;;;;;4944638;28;98893;-71
2024/01/24 14:36:36;;;;;;;11.05;2.03;;;;;;;;;;4923327;28;100408;-70